< < Back
Terminal Aerodrome Forecast


Current Version              Previous Versions:   1  2  3  4  5  6  7  8  9  

Terminal Aerodrome Forecast

430
FTUS44 KMRX 092126 AAB
TAFCHA
TAF AMD
KCHA 092126Z 0921/1018 28012G18KT 6SM -SHSN SCT015 OVC035
      TEMPO 0921/0923 1SM -SN BKN015
     FM100100 29010KT P6SM OVC025
     FM101500 29010KT P6SM SCT025=

Latest METAR

870
SAUS80 KWBC 092200 RRB
MTRCHA
METAR KCHA 092153Z 29012G22KT 10SM FEW018 BKN034 OVC044 M01/M08 A2994
RMK AO2 SNB00E44 SLP142 P0000 T10111083


USA.gov is the U.S. government's official web portal to all federal, state and local government web resources and services.